x

8454049 - Quonset Point, Ri (qptr1) Weather Station

8:54 - Fri 24th Mar 2017 All times are EDT. -4 hours from GMT.

  • Wind
    13mph, 14mph gusts
  • Sea Temp 38°f
  • Luft Temp 38°f
  • Sea Pressure 1032.1mb
  • 8454049 - Quonset Point, Ri
  • 8454049 - Quonset Point, Ri

More Historic Weather Station data

Upgrade to MSW Pro to gain access to the past 30 days of data for over 8000 Wavebouys and Weather Stations around the globe.

Join Pro

Comparision Forecast

View Surf forecast
   
Fr 03/24 8:54 13 14 mph 1032.1mb 38f 38f
8:48 11 13 mph 1032.4mb 38f 37f
8:42 10 11 mph 1032.5mb 38f 37f
7:48 3 5 mph 1033.5mb 38f 33f
7:42 5
mph
1033.5mb 38f 34f
7:36 5 6 mph 1033.5mb 38f 34f
7:30 5 7 mph 1033.4mb 38f 34f
7:24 5 6 mph 1033.5mb 38f 34f
7:18 3 5 mph 1033.6mb 38f 34f
7:12 2 5 mph 1033.7mb 38f 33f
7:06  -  2 mph 1033.8mb 38f 33f
7:00  -  2 mph 1033.6mb 38f 32f
6:54 1 2 mph 1033.6mb 38f 32f
6:48 2 3 mph 1033.6mb 38f 31f
6:42 3 6 mph 1033.5mb 38f 31f
6:36 5 6 mph 1033.5mb 38f 32f
6:30 6
mph
1033.5mb 38f 31f
6:24 6
mph
1033.3mb 38f 31f
6:18 6 7 mph 1033.2mb 38f 31f
6:12 6
mph
1033.2mb 38f 32f
6:06 3 5 mph 1033.1mb 38f 31f
6:00 5
mph
1033.1mb 38f 31f
5:54 3 5 mph 1033mb 38f 31f
5:48 5
mph
1033mb 38f 31f
5:42 3 5 mph 1033mb 38f 31f
5:36 5 6 mph 1033.1mb 38f 31f
5:30 5 6 mph 1033.2mb 38f 31f
5:24 5 6 mph 1033.6mb 38f 31f
5:18 5 6 mph 1033.5mb 38f 31f
5:12 6
mph
1033.4mb 38f 31f
5:06 5 6 mph 1033.4mb 38f 31f
5:00 5 6 mph 1033.3mb 38f 31f
4:54 6
mph
1033.2mb 38f 31f
4:48 6 7 mph 1033.2mb 38f 31f
4:42 5 7 mph 1033.3mb 38f 30f
4:36 5 6 mph 1033.4mb 38f 30f
4:30 5 6 mph 1033.4mb 38f -
4:24 6 8 mph 1033.6mb 37f 29f
4:18 8 9 mph 1033.7mb 37f 29f
4:12 8 9 mph 1034mb 37f 29f
4:06 6 7 mph 1033.8mb 37f 29f
4:00 6 7 mph 1033.8mb 37f 29f
3:54 6 7 mph 1034mb 37f 30f
3:48 6 7 mph 1034.3mb 37f 30f
3:42 6 7 mph 1034.1mb 37f 30f
3:36 7 8 mph 1034.3mb 37f 31f
3:30 7 8 mph 1034.3mb - -
3:24 8 9 mph 1034.1mb 37f 31f
3:18 8 10 mph 1034.1mb 37f 30f
3:12 10 11 mph 1034.2mb 37f 30f
3:06 10 11 mph 1034.2mb 37f 30f
3:00 10 13 mph 1034.1mb 37f 29f
2:54 6
mph
1034.1mb 37f 31f
2:48 3
mph
1033.9mb 37f 31f
2:42 1 2 mph 1033.9mb 38f 31f
2:36 2
mph
1034mb 38f 31f
2:30 1 2 mph 1033.9mb 38f 32f
2:24 2 3 mph 1033.9mb 38f 32f
2:18 2
mph
1033.7mb 38f 32f
2:12 2
mph
1033.5mb 38f 32f
2:06 1 2 mph 1033.7mb 38f 31f
2:00 1 2 mph 1033.8mb 38f 31f
1:54 2
mph
1034.1mb 38f 31f
1:48 2
mph
1034.4mb 38f 31f
1:42 3 5 mph 1034.4mb 38f -
1:36 2 3 mph 1034.4mb 38f -
1:30 1 3 mph 1034.5mb 38f 31f
1:24 2 3 mph 1034.5mb 38f 31f
1:18  -  2 mph 1034.7mb 38f 31f
1:12 2 7 mph 1034.7mb 38f 31f
1:06 6
mph
1034.8mb 38f 31f
1:00 5
mph
1034.7mb 38f 31f
12:54 3 6 mph 1034.4mb 38f 31f
12:48 6 8 mph 1034.4mb 38f 31f
12:42 7 8 mph 1034.1mb 38f 31f
12:36 7 8 mph 1034.2mb 38f 32f
12:30 5 6 mph 1034mb 38f 32f
12:24 5 6 mph 1034.1mb 38f 32f
12:18 6 7 mph 1034.2mb 38f 32f
12:12 5 7 mph 1034.2mb 38f 32f
12:06 6 7 mph 1034.2mb 38f 32f
12:00 5 7 mph 1034.3mb 38f -
Do 03/23 11:54 5 7 mph 1034.5mb 38f 32f
11:48 7 8 mph - - -
11:42 7 8 mph 1034.7mb 38f 32f
11:36 5 7 mph 1034.7mb 38f 32f
11:30 6 8 mph 1034.7mb 38f 32f
11:24 6 7 mph 1034.7mb 38f 33f
11:18 6 7 mph 1034.9mb 38f 33f
11:12 5 7 mph 1034.9mb 38f 33f
11:06 6 8 mph 1034.7mb 38f 32f
11:00 8 9 mph 1034.8mb 38f 33f
10:54 6 8 mph 1034.9mb 38f 33f
10:48 6 8 mph 1034.9mb 38f 33f
10:42 6 8 mph 1035.1mb 38f 33f
10:36 6 8 mph 1035mb 38f 33f
10:30 6 9 mph 1034.8mb 38f 33f
10:24 7 9 mph 1034.9mb 38f 33f
10:18 6 9 mph - - -
10:12 8 9 mph 1034.9mb 38f 33f
10:06 7 10 mph 1034.7mb 38f 34f
10:00 7 8 mph 1034.4mb 38f 33f
9:54 5 6 mph 1034.4mb 38f 33f
9:48 6 7 mph 1034.6mb - -
9:42 7 8 mph 1034.5mb 38f 33f
9:36 7 10 mph 1034.3mb 38f 33f
9:30 8 10 mph 1034.2mb 38f 33f
9:24 6 8 mph 1034.4mb 38f 33f
9:18 6 8 mph - - -
9:12 7 10 mph 1034.2mb 38f 34f
9:06 7 8 mph 1034mb 38f 34f
9:00 5 7 mph 1033.9mb 38f 34f
8:54 6 8 mph 1033.8mb 38f 34f
8:48 6 8 mph 1033.7mb - -
8:42 6 7 mph 1033.6mb 38f 35f
8:36 3 6 mph 1033.6mb 38f 35f
8:30 3 6 mph 1033.4mb 38f 35f
8:24 6 9 mph 1033.3mb 38f 35f
8:18 7 9 mph - - -
8:12 7 8 mph 1033.1mb 38f 35f
8:06 7 9 mph 1033mb 38f 36f
8:00 6 9 mph 1033mb 38f 36f
7:54 6 8 mph 1032.9mb 38f 36f
7:48 7 9 mph - - -
7:42 7 9 mph 1032.6mb 38f 36f
7:36 7 10 mph 1032.5mb 38f 37f
7:30 7 10 mph 1032.5mb 38f 37f
7:24 8 13 mph 1032.5mb 38f 37f
7:18 8 10 mph - - -
7:12 7 11 mph 1032.4mb 38f 37f
7:06 9 16 mph 1032.3mb 38f 37f
7:00 13 16 mph 1032.1mb 38f -
6:54 13 17 mph 1032mb 38f 37f
6:48 11 16 mph 1032mb - -
6:42 9 14 mph 1031.9mb 39f 38f
6:36 13 20 mph 1031.8mb 39f 38f
6:30 11 16 mph 1031.7mb 39f 38f
6:24 11 17 mph 1031.7mb 39f 38f
6:18 11 15 mph - - -
6:12 10 16 mph 1031.5mb 39f 39f
6:06 10 15 mph 1031.3mb 39f 39f
6:00 14 17 mph 1031.2mb 39f 39f
5:54 13 20 mph 1031.1mb 39f 39f
5:48 15 21 mph 1031.1mb - -
5:42 13 18 mph 1031.1mb 39f 39f
5:36 11 16 mph 1031.1mb 39f 39f
5:30 10 16 mph 1031.1mb 39f 39f
5:24 14 21 mph 1031.1mb 39f 39f
5:18 15 21 mph 1031mb 39f 39f
5:12 14 22 mph 1031mb 39f 39f
5:06 15 18 mph 1030.9mb 38f 39f
5:00 7 14 mph 1030.9mb 38f 39f
4:54 14 20 mph 1030.9mb 38f 39f
4:48 8 16 mph 1030.9mb 38f 39f
4:42 11 20 mph 1031mb 38f 39f
4:36 9 14 mph 1030.9mb 38f 38f
4:30 13 17 mph 1031mb 38f 38f
4:24 13 18 mph 1031mb 38f 38f
4:18 9 16 mph 1031.1mb 38f 38f
4:12 11 17 mph 1031mb 38f 38f
4:06 6 13 mph 1031mb 38f 38f
4:00 11 22 mph 1031.1mb 38f -
3:54 8 15 mph 1031.1mb 38f 38f
3:48 14 17 mph 1031.2mb 38f 37f
3:42 11 17 mph 1031.2mb 38f 37f
3:36 11 17 mph 1031.1mb 38f 37f
3:30 13 18 mph 1031.1mb 38f 37f
3:24 14 21 mph 1031.1mb 38f 36f
3:18 7 22 mph 1031.1mb 38f 36f
3:12 15 21 mph 1031.1mb 38f 36f
3:06 14 21 mph 1031.1mb 38f 36f
3:00 11 21 mph 1031.2mb 38f 35f
2:54 10 20 mph 1031.2mb 38f 36f
2:48 15 20 mph - - -
2:42 8 15 mph 1031.3mb 38f 35f
2:36 8 17 mph 1031.3mb 38f 35f
2:30 10 18 mph 1031.3mb 38f 34f
2:24 13 18 mph 1031.3mb 38f 35f
2:18 13 17 mph 1031.4mb 38f 35f
2:12 13 22 mph 1031.3mb 38f 35f
2:06 15 22 mph 1031.4mb 38f 35f
2:00 15 22 mph 1031.4mb 38f 34f
1:54 14 20 mph 1031.6mb 38f 34f
1:48 16 21 mph 1031.7mb 38f 34f
1:42 14 20 mph 1031.7mb 38f 33f
1:36 11 21 mph 1031.8mb 38f 33f
1:30 9 15 mph 1031.8mb 38f 33f
1:24 13 22 mph 1032mb 38f 32f
1:18 14 21 mph 1032mb 38f 32f
1:12 13 18 mph 1032.1mb 38f 32f
1:06 8 13 mph 1032.3mb 38f 31f
1:00 7 11 mph 1032.4mb 38f 31f
12:54 10 16 mph 1032.5mb 38f 30f
12:48 7 16 mph 1032.6mb 38f 30f
12:42 7 16 mph 1032.6mb 38f 31f
12:36 14 20 mph 1032.6mb 38f 30f
12:30 10 21 mph 1032.7mb 38f 30f
12:24 10 20 mph 1032.8mb 38f 29f
12:18 11 17 mph 1032.8mb 38f 30f
12:12 8 18 mph 1032.9mb 38f 30f
12:06 10 16 mph 1032.9mb 38f 30f
12:00 8 18 mph 1033mb 38f 30f
11:54 10 18 mph 1033.1mb 38f 29f
11:48 13 17 mph - - -
11:42 13 20 mph 1033.2mb 38f 29f
11:36 10 17 mph 1033.2mb 38f 28f
11:30 14 18 mph 1033.3mb 38f 28f
11:24 15 21 mph 1033.4mb 38f 28f
11:18 9 16 mph 1033.5mb 38f 28f
11:12 11 15 mph 1033.5mb 38f 27f
11:06 10 18 mph 1033.6mb 38f 28f
11:00 13 16 mph 1033.6mb 38f 27f
10:54 14 18 mph 1033.6mb 38f 27f
10:48 13 17 mph 1033.6mb 38f 27f
10:42 13 15 mph 1033.6mb 37f 27f
10:36 10 20 mph 1033.6mb 37f 26f
10:30 14 18 mph 1033.5mb 37f 26f
10:24 15 22 mph 1033.6mb 37f 26f
10:18 11 17 mph 1033.6mb 37f 26f
10:12 11 20 mph 1033.6mb 37f 26f
10:06 16 20 mph 1033.5mb 37f 26f
10:00 13 22 mph 1033.7mb 37f 25f
9:54 13 17 mph 1033.6mb 37f 25f
9:48 17 22 mph 1033.6mb 37f 24f
9:42 15 20 mph 1033.6mb 37f 24f
9:36 14 20 mph 1033.6mb 37f 24f
9:30 14 22 mph 1033.7mb 37f 24f
9:24 18 24 mph 1033.6mb 37f 24f
9:18 14 20 mph 1033.6mb 37f 23f
9:12 16 22 mph 1033.5mb 37f 23f
9:06 11 21 mph 1033.5mb 37f 23f
9:00 16 22 mph 1033.4mb 37f 23f
8:54 16 20 mph 1033.4mb 37f 23f
8:48 9 18 mph 1033.5mb 37f 23f
8:42 13 18 mph 1033.5mb 37f 22f
8:36 13 17 mph 1033.5mb 37f 22f
8:30 13 16 mph 1033.5mb 37f 22f
8:24 11 15 mph 1033.4mb 37f 22f
8:18 10 15 mph 1033.4mb 38f 22f
8:12 9 13 mph 1033.4mb 38f 21f
8:06 8 13 mph 1033.3mb 38f 21f
8:00 10 13 mph 1033.2mb 38f 21f
7:54 7 10 mph 1033.2mb 38f 21f
7:48 6 9 mph 1033.1mb 38f 21f
7:42 6 10 mph 1033.1mb 38f 21f
7:36 6 10 mph 1033mb 38f 21f
7:30 6 10 mph 1032.9mb 38f 21f
7:24 7 11 mph 1032.8mb 38f 21f
7:18 8 13 mph - - -
7:12 7 11 mph 1032.6mb 38f 20f
7:06 8 11 mph 1032.5mb 38f 20f
7:00 8 11 mph 1032.4mb 38f 20f
6:54 7 10 mph 1032.4mb 38f 20f
6:48 6 9 mph 1032.3mb 38f 20f
6:42 6 9 mph 1032.1mb 38f 20f
6:36 7 13 mph 1032mb 38f 20f
6:30 6 9 mph 1031.9mb 38f 20f
6:24 7 9 mph 1031.8mb 38f 20f
6:18 7 15 mph 1031.7mb 38f 20f
6:12 9 14 mph 1031.5mb 38f 20f
6:06 9 13 mph 1031.4mb 38f 20f
6:00 9 14 mph 1031.3mb 38f 20f
5:54 9 15 mph 1031.1mb 38f 20f
5:48 8 14 mph - - -
5:42 8 10 mph 1031mb 38f 20f
5:36 8 16 mph 1030.9mb 38f 20f
5:30 9 14 mph 1030.8mb 38f 20f
5:24 9 13 mph 1030.7mb 38f 20f
5:18 6 11 mph - - -
5:12 9 15 mph 1030.5mb 38f 20f
5:06 9 14 mph 1030.4mb 38f 20f
5:00 10 15 mph 1030.3mb 38f 20f
4:54 9 13 mph 1030.3mb 38f 20f
4:48 10 15 mph 1030.3mb 38f 20f
4:42 9 16 mph 1030.3mb 38f 20f
4:36 11 14 mph 1030.1mb 38f 20f
4:30 8 15 mph 1030.1mb 38f 20f
4:24 11 16 mph 1030mb 38f 20f
4:18 10 18 mph 1030mb 38f 20f
4:12 13 16 mph 1030mb 38f 20f
4:06 9 14 mph 1030mb 38f 20f
4:00 10 14 mph 1029.9mb 38f 20f
3:54 11 21 mph 1029.8mb 38f 20f
3:48 15 20 mph 1029.8mb 38f 20f
3:42 10 15 mph 1029.8mb 38f 20f
3:36 8 14 mph 1029.8mb 38f 20f
3:30 9 16 mph 1029.8mb 38f 20f
3:24 11 16 mph 1029.7mb 38f 20f
3:18 9 16 mph 1029.7mb 38f 20f
3:12 10 13 mph 1029.6mb 38f 20f
3:06 9 16 mph 1029.6mb 38f 20f
3:00 10 17 mph 1029.6mb 38f -
2:54 14 23 mph 1029.5mb 38f 20f
2:48 13 17 mph 1029.4mb 38f 20f
2:42 14 20 mph 1029.4mb 38f -
2:36 11 16 mph 1029.3mb 38f -
2:30 11 24 mph 1029.3mb 38f 21f
2:24 10 16 mph 1029.3mb 38f 20f
2:18 14 17 mph 1029.3mb 38f 20f
2:12 11 24 mph 1029.3mb 38f 21f
2:06 15 22 mph 1029.3mb 38f 21f
2:00 15 25 mph 1029.3mb 38f 21f
1:54 13 21 mph 1029.3mb 38f 21f
1:48 13 24 mph 1029.2mb 38f 21f
1:42 14 21 mph 1029mb 38f -
1:36 14 20 mph 1029mb 38f -
1:30 15 18 mph 1028.9mb 38f 21f
1:24 14 17 mph 1028.8mb 38f 21f
1:18 14 21 mph 1028.7mb 38f 21f
1:12 14 22 mph 1028.7mb 38f 22f
1:06 16 26 mph 1028.6mb 38f 21f
1:00 17 22 mph 1028.5mb 38f 22f
12:54 16 24 mph 1028.5mb 38f 22f
12:48 16 24 mph 1028.4mb 38f 22f
12:42 16 22 mph 1028.2mb 38f 22f
12:36 14 25 mph 1028.2mb 38f 22f
12:30 15 26 mph 1028.1mb 38f -
12:24 13 20 mph 1028mb 38f 22f
12:18 21 36 mph 1027.8mb 38f 22f
12:12 17 29 mph 1027.6mb 38f 22f
12:06 21 29 mph 1027.5mb 38f 23f
12:00 21 29 mph 1027.4mb 38f 23f
Mi 03/22 11:54 17 30 mph 1027.3mb 38f 23f
11:48 24 30 mph 1026.9mb - -
11:42 21 31 mph 1026.9mb 38f 23f
11:36 21 31 mph 1026.8mb 38f 23f
11:30 15 20 mph 1026.8mb 38f 24f
11:24 16 22 mph 1026.7mb 38f 24f
11:18 11 21 mph 1026.7mb 38f 24f
11:12 15 20 mph 1026.5mb 38f 24f
11:06 14 26 mph 1026.5mb 38f 24f
11:00 13 21 mph 1026.4mb 38f 24f
10:54 13 16 mph 1026.4mb 38f 24f
10:48 10 18 mph - - -
10:42 14 28 mph 1026.2mb 38f 24f
10:36 17 25 mph 1026mb 38f 24f
10:30 20 32 mph 1025.9mb 38f 24f
10:24 20 36 mph 1025.7mb 38f 24f
10:18 22 31 mph - - -
10:12 21 29 mph 1025.5mb 38f 24f
10:06 14 24 mph 1025.5mb 38f 25f
10:00 20 25 mph 1025.3mb 38f 25f
9:54 15 25 mph 1025.5mb 38f 25f
9:48 25 34 mph 1025.2mb - -
9:42 21 29 mph 1025.1mb 38f 25f
9:36 13 22 mph 1025.1mb 38f 25f
9:30 13 23 mph 1025mb 38f 25f
9:24 11 17 mph 1024.9mb 38f 25f
9:18 15 26 mph 1024.8mb - -
9:12 17 28 mph 1024.6mb 38f 25f
9:06 21 29 mph 1024.5mb 38f 26f
9:00 14 31 mph 1024.5mb 39f 26f
8:54 16 23 mph 1024.4mb 39f 26f
8:48 16 23 mph 1024.2mb - -
8:42 18 25 mph 1024.2mb 39f 26f
8:36 10 22 mph 1024.2mb 39f 26f
8:30 17 28 mph 1023.9mb 39f 26f
8:24 18 30 mph 1023.7mb 39f 26f
8:18 15 20 mph - - -
8:12 9 20 mph 1023.5mb 39f 27f
8:06 16 22 mph 1023.3mb 39f 27f
8:00 18 25 mph 1023.1mb 39f 27f
7:54 20 26 mph 1022.9mb 39f 27f
7:48 15 24 mph 1022.8mb - -
7:42 17 28 mph 1022.6mb 39f 27f
7:36 16 25 mph 1022.3mb 39f 27f
7:30 18 26 mph 1022.3mb 39f 27f
7:24 15 29 mph 1022.2mb 39f 28f
7:18 17 31 mph - - -
7:12 21 31 mph 1021.7mb 39f 28f
7:06 21 28 mph 1021.5mb 39f 28f
7:00 15 24 mph 1021.4mb 39f 28f
6:54 13 22 mph 1021.3mb 39f 28f
6:48 15 25 mph 1021.1mb - -
6:42 17 30 mph 1020.8mb 39f 29f
6:36 25 34 mph 1020.6mb 39f 29f
6:30 25 34 mph 1020.4mb 39f 29f
6:24 20 31 mph 1020.4mb 39f 29f
6:18 17 34 mph 1020.3mb - -
6:12 25 33 mph 1020.1mb 39f 29f
6:06 16 24 mph 1020mb 39f 30f
6:00 22 30 mph 1019.9mb 39f 29f
5:54 18 29 mph 1019.7mb 39f 30f
5:48 16 21 mph 1019.7mb 39f 30f
5:42 18 30 mph 1019.5mb 39f 30f
5:36 17 24 mph 1019.3mb 39f 30f
5:30 22 33 mph 1019.2mb 39f 30f
5:24 22 28 mph 1019.1mb 39f 30f
5:18 21 30 mph 1018.9mb 39f 30f
5:12 21 28 mph 1018.8mb 39f 30f
5:06 24 37 mph 1018.6mb 39f 30f
5:00 20 29 mph 1018.6mb 39f 31f
4:54 23 32 mph 1018.5mb 39f 30f
4:48 25 31 mph - - -
4:42 24 28 mph 1018.2mb 39f 31f
4:36 20 29 mph 1018.2mb 39f 31f
4:30 23 38 mph 1018.1mb 39f 31f
4:24 22 32 mph 1018.1mb 39f 31f
4:18 25 37 mph 1017.8mb 39f 31f
4:12 17 24 mph 1017.7mb 39f 31f
4:06 18 33 mph 1017.6mb 39f 31f
4:00 22 32 mph 1017.5mb 39f 31f
3:54 23 32 mph 1017.4mb 39f 31f
3:48 22 29 mph - - -
3:42 20 30 mph 1017.4mb 39f 31f
3:36 16 28 mph 1017.3mb 39f 31f
3:30 22 32 mph 1017.2mb 39f 32f
3:24 21 30 mph 1017.2mb 39f 32f
3:18 20 30 mph - - -
3:12 26 36 mph 1016.7mb 39f 32f
3:06 23 32 mph 1016.8mb 39f 32f
3:00 20 31 mph 1016.6mb 39f 33f
2:54 26 33 mph 1016.3mb 39f 32f
2:48 23 32 mph - - -
2:42 24 32 mph 1016.1mb 39f 33f
2:36 22 33 mph 1016.1mb 39f 33f
2:30 24 41 mph 1015.8mb 39f 33f
2:24 25 36 mph 1015.7mb 39f 33f
2:18 23 30 mph - - -
2:12 23 36 mph 1015.7mb 39f 32f
2:06 24 34 mph 1015.7mb 39f 33f
2:00 21 32 mph 1015.6mb 39f 33f
1:54 25 38 mph 1015.5mb 39f 32f
1:48 23 37 mph - - -
1:42 30 37 mph 1015.3mb 39f 33f
1:36 22 30 mph 1015.3mb 39f 33f
1:30 23 33 mph 1015.2mb 39f 33f
1:24 25 33 mph 1015mb 39f 34f
1:18 29 36 mph 1014.8mb 39f 34f
1:12 25 33 mph 1014.8mb 39f 35f
1:06 23 33 mph 1014.6mb 39f 35f
1:00 25 37 mph 1014.5mb 39f 34f
12:54 23 34 mph 1014.3mb 39f 35f
12:48 22 33 mph 1014.4mb 39f 35f
12:42 16 29 mph 1014.5mb 39f 36f
12:36 23 37 mph 1014.5mb 39f 35f
12:30 28 37 mph 1014.3mb 39f 35f
12:24 22 31 mph 1014.3mb 39f 35f
12:18 24 31 mph 1014.1mb 39f 36f
12:12 16 32 mph 1014.1mb 39f 36f
12:06 24 32 mph 1013.9mb 39f 35f
11:54 23 33 mph 1013.6mb 38f 36f
11:48 24 33 mph 1013.4mb 38f 36f
11:42 20 29 mph 1013.3mb 38f 37f
11:36 21 32 mph 1013.1mb 38f 37f
11:30 21 31 mph 1013.2mb 38f 37f
11:24 26 32 mph 1013.1mb 38f 37f
11:18 21 26 mph 1012.9mb 38f 37f
11:12 18 31 mph 1012.9mb 38f 37f
11:06 24 33 mph 1012.7mb 38f 37f
11:00 20 28 mph 1012.5mb 38f 38f
10:54 22 31 mph 1012.3mb 38f 37f
10:48 23 33 mph - - -
10:42 22 30 mph 1012.2mb 38f 38f
10:36 22 31 mph 1012.2mb 38f 38f
10:30 20 32 mph 1012.1mb 38f 38f
10:24 20 29 mph 1011.9mb 38f 38f
10:18 25 33 mph 1011.8mb 38f 38f
10:12 22 33 mph 1011.7mb 38f 38f
10:06 22 36 mph 1011.6mb 38f 39f
10:00 28 37 mph 1011.6mb 38f 38f
9:54 16 29 mph 1011.8mb 38f 39f
9:48 21 32 mph 1011.7mb 38f 38f
9:42 18 26 mph 1011.7mb 38f 37f
9:36 18 29 mph 1011.6mb 38f 37f
9:30 20 30 mph 1011.6mb 38f 37f
9:24 24 31 mph 1011.4mb 38f 38f
9:18 25 38 mph 1010.8mb 38f 40f
9:12 22 31 mph 1010.7mb 38f 40f
9:06 24 31 mph 1010.5mb 38f 40f
9:00 21 29 mph 1010.5mb 38f 41f
8:54 25 32 mph 1010.5mb 38f 40f
8:48 25 36 mph 1010.4mb 38f 40f
8:42 18 30 mph 1010.5mb 38f 40f
8:36 22 32 mph 1010.4mb 38f 40f
8:30 17 23 mph 1010.4mb 38f 40f
8:24 16 23 mph 1010.3mb 38f 40f
8:18 18 23 mph 1010.3mb 38f 40f
8:12 14 22 mph 1010.3mb 38f 40f
8:06 15 24 mph 1010.3mb 38f 39f
8:00 13 18 mph 1010.4mb 38f 39f
7:54 13 21 mph 1010.4mb 38f 39f
7:48 10 16 mph - - -
7:42 10 15 mph 1010.4mb 38f 39f
7:36 11 17 mph 1010.4mb 38f 39f
7:30 11 16 mph 1010.4mb 38f 39f
7:24 13 17 mph 1010.3mb 38f 38f
7:18 13 16 mph 1010.3mb 38f 38f
7:12 10 16 mph 1010.3mb 38f 38f
7:06 14 18 mph 1010.3mb 38f 38f
7:00 10 18 mph 1010.3mb 38f 38f
6:54 15 22 mph 1010.2mb 38f 39f
6:48 10 18 mph 1010.1mb 38f 39f
6:42 13 18 mph 1010mb 38f 39f
6:36 13 20 mph 1009.8mb 38f 39f
6:30 11 20 mph 1009.7mb 38f 39f
6:24 11 18 mph 1009.6mb 38f 39f
6:18 10 15 mph - - -
6:12 10 16 mph 1009.5mb 38f 39f
6:06 9 15 mph 1009.5mb 38f 39f
6:00 8 17 mph 1009.5mb 38f 39f
5:54 13 16 mph 1009.4mb 38f 40f
5:48 11 16 mph - - -
5:42 13 17 mph 1009.4mb 38f 40f
5:36 13 18 mph 1009.4mb 38f 40f
5:30 16 22 mph 1009.3mb 38f 40f
5:24 13 18 mph 1009.2mb 38f 40f
5:18 11 15 mph 1009.1mb 38f 40f
5:12 9 14 mph 1009.2mb 38f 40f
5:06 9 14 mph 1009.2mb 38f 40f
5:00 9 13 mph 1009.1mb 38f 40f
4:54 9 14 mph 1009mb 38f 40f
4:48 8 10 mph 1008.9mb 38f 41f
4:42 6 8 mph 1008.8mb 38f 40f
4:36 5 7 mph 1008.9mb 38f 39f
4:30 7 8 mph 1008.9mb 38f 38f
4:24 6 7 mph 1008.8mb 38f 38f
4:18 6 7 mph - - -
4:12 7 8 mph 1008.6mb 38f 37f
4:06 7
mph
1008.6mb 38f 37f
4:00 6
mph
1008.5mb 38f 39f
3:54 6
mph
1008.4mb 38f 39f
3:48 5 6 mph - - -
3:42 6 8 mph 1008.6mb 38f 41f
3:36 6 7 mph 1008.6mb 38f 41f
3:30 6 7 mph 1008.7mb 38f 41f
3:24 5
mph
1008.8mb 38f 41f
3:18 5 7 mph 1008.9mb 38f 41f
3:12 5 6 mph 1009mb 38f 41f
3:06 5 6 mph 1009.1mb 38f 40f
3:00 5 6 mph 1009.1mb 38f 40f
2:54 6 7 mph 1009.2mb 38f 40f
2:48 6 7 mph 1009.3mb 38f 39f
2:42 6 7 mph 1009.3mb 38f -
2:36 6 7 mph 1009.5mb 38f -
2:30 6 7 mph 1009.6mb 38f 40f
2:24 6 7 mph 1009.7mb 38f 40f
2:18 6
mph
1009.7mb 38f 41f
2:12 6
mph
1009.8mb 38f 41f
2:06 5 6 mph 1009.9mb 38f 40f
2:00 5 6 mph 1009.9mb 38f 41f
1:54 3 6 mph 1009.9mb 38f 42f
1:48 6 7 mph 1010mb 38f 43f
1:42 6 7 mph - - -
1:36 6 7 mph - - -
1:30 6 7 mph 1010mb 38f 44f
1:24 6 8 mph 1010mb 39f 44f
1:18 6 9 mph - - -
1:12 6 9 mph 1010mb 39f 44f
1:06 6 9 mph 1010mb 39f 45f
1:00 6 9 mph 1010mb 39f 45f
12:54 6 9 mph 1010.1mb 39f 45f
12:48 7 9 mph 1010.1mb 39f 45f
12:42 7 11 mph 1010.2mb 38f 45f
12:36 7 10 mph 1010.2mb 38f 45f
12:30 7 9 mph 1010.3mb 38f 45f
12:24 8 13 mph 1010.2mb 38f 46f
12:18 7 11 mph 1010.2mb 38f 45f
12:12 6 7 mph 1010.2mb 38f 45f
12:06 6 8 mph 1010.2mb 38f 45f
12:00 5 7 mph 1010.2mb 38f 45f
Di 03/21 11:54 3 5 mph 1010.5mb 38f 45f
11:48 3 8 mph - - -
11:42 6 7 mph 1010.6mb 38f 46f
11:36 5 9 mph 1010.6mb 38f 46f
11:30 7 11 mph 1010.6mb 38f -
11:24 6 10 mph 1010.7mb 38f 46f
11:18 9 14 mph 1010.7mb 38f 47f
11:12 7 11 mph 1010.8mb 38f 46f
11:06 7 11 mph 1010.9mb 38f 46f
11:00 8 10 mph 1010.9mb 38f 47f
10:54 10 14 mph 1010.9mb 38f 47f
10:48 9 14 mph 1010.9mb 38f 47f
10:42 9 13 mph 1010.8mb 39f 47f
10:36 9 13 mph 1010.8mb 39f 46f
10:30 8 14 mph 1010.8mb 39f 47f
10:24 8 11 mph 1010.8mb 39f 47f
10:18 8 15 mph 1010.7mb - -
10:12 7 13 mph 1010.7mb 40f 46f
10:06 10 13 mph 1010.6mb 40f 47f
10:00 7 9 mph 1010.5mb 41f 46f
9:54 8 9 mph 1010.3mb 41f 45f
9:48 8 9 mph 1010.2mb - -
9:42 8 9 mph 1010.2mb 41f 45f
9:36 8 9 mph 1010.2mb 41f 45f
9:30 8 9 mph 1010.1mb 41f 45f
9:24 8 9 mph 1010.1mb 41f 45f
9:18 9
mph
1010.1mb - -
9:12 9
mph
1010.1mb 41f 45f
9:06 9
mph
1010.1mb 41f 45f
9:00 9 10 mph 1010mb 40f 45f
8:54 9 10 mph 1009.9mb 41f 45f
8:48 9 10 mph 1009.9mb - -
8:42 9 11 mph 1009.9mb 40f 45f
8:36 10 11 mph 1009.7mb 40f 46f
8:30 10 11 mph 1009.7mb 40f 46f
8:24 9 10 mph 1009.6mb 40f 46f
8:18 8 9 mph 1009.5mb - -
8:12 8
mph
1009.4mb 41f 46f
8:06 6 8 mph 1009.4mb 41f 46f
8:00 7 8 mph 1009.5mb 40f 46f
7:54 7 8 mph 1009.5mb 40f 45f
7:48 7 8 mph 1009.5mb 40f 46f
7:42 8 9 mph 1009.4mb 40f 47f
7:36 8 9 mph 1009.3mb 40f 46f
7:30 9 10 mph 1009.3mb 40f 47f
7:24 9 10 mph 1009.3mb 40f 47f
7:18 9 10 mph 1009.2mb - -
7:12 10 11 mph 1009.2mb 40f 48f
7:06 11
mph
1009.1mb 40f 47f
7:00 10 11 mph 1009mb 40f 47f
6:54 9 13 mph 1008.9mb 40f 47f
6:48 13 16 mph 1008.7mb - -
6:42 11 13 mph 1008.7mb 39f 48f
6:36 13 14 mph 1008.7mb 39f 50f
6:30 11 14 mph 1008.7mb 39f 49f
6:24 14 15 mph 1008.6mb 39f 50f
6:18 14 15 mph - - -
6:12 14 16 mph 1008.5mb 38f 50f
6:06 14
mph
1008.4mb 38f 50f
6:00 11 13 mph 1008.4mb 38f 50f
5:54 10 14 mph 1008.4mb 38f 49f
5:48 13 14 mph 1008.4mb - -
5:42 11 14 mph 1008.3mb 38f 50f
5:36 13 14 mph 1008.3mb 39f 50f
5:30 13 16 mph 1008.3mb 39f 50f
5:24 15
mph
1008.3mb 39f 50f
5:18 14 17 mph 1008.4mb 39f 51f
5:12 15 17 mph 1008.4mb 39f 51f
5:06 15 17 mph 1008.5mb 39f 50f
4:54 14 17 mph 1008.4mb 39f 50f
4:48 15 18 mph - - -
4:42 14 17 mph 1008.5mb 39f 50f
4:36 14 15 mph 1008.5mb 39f 49f
4:30 14 16 mph 1008.5mb 39f 50f
4:24 11 14 mph 1008.6mb 39f 48f
4:18 13 16 mph 1008.7mb 39f 49f
4:12 15 17 mph 1008.7mb 39f 49f
4:06 15
mph
1008.8mb 39f 48f
4:00 14 15 mph 1009mb 39f 49f
3:54 11 15 mph 1009mb 39f 49f
3:48 11 16 mph - - -
3:42 15 17 mph 1009.1mb 39f 46f
3:36 15 17 mph 1009.2mb 39f 45f
3:30 14 20 mph 1009.3mb 39f 44f
3:24 18 21 mph 1009.2mb 39f 44f
3:18 18 22 mph 1009.2mb 39f 44f
3:12 18 22 mph 1009.2mb 39f 45f
3:06 18 20 mph 1009.2mb 39f 44f
3:00 17 20 mph 1009.3mb 39f 44f
2:54 18 21 mph 1009.4mb 39f 44f
2:48 17 21 mph 1009.5mb 39f 44f
2:42 18 21 mph 1009.6mb 39f 45f
2:36 18
mph
1009.7mb 39f 44f
2:30 17 21 mph 1009.8mb 39f 44f
2:24 16 18 mph 1009.9mb 39f 45f
2:18 17 20 mph 1010mb 39f 45f
2:12 17 18 mph 1010.2mb 39f 45f
2:06 16 20 mph 1010.4mb 39f 45f
1:54 15 18 mph 1010.5mb 39f 45f
1:48 11 14 mph 1010.5mb 39f 46f
1:42 11 14 mph 1010.7mb 39f 46f
1:36 10 14 mph 1010.8mb 39f 46f
1:30 8 10 mph 1011mb 39f 46f
1:24 8 10 mph 1011mb 39f 49f
1:18 10 11 mph 1011.1mb 39f 48f
1:12 10 11 mph 1011.2mb 39f 47f
1:06 10 13 mph 1011.4mb 39f 47f
1:00 10 13 mph 1011.4mb 39f 45f
12:54 11 14 mph 1011.4mb 39f 45f
12:48 13 14 mph 1011.4mb 39f 45f
12:42 14 15 mph 1011.4mb 39f 45f
12:36 14 15 mph 1011.5mb 39f 45f
12:30 13
mph
1011.6mb 39f 44f
12:24 11 14 mph 1011.6mb 39f 44f
12:18 11
mph
1011.6mb 39f 44f
12:12 11 13 mph 1011.6mb 39f 43f
12:06 11 13 mph 1011.6mb 39f 43f
12:00 8 10 mph 1011.8mb 39f 43f
11:54 7 9 mph 1011.9mb 38f 43f
11:48 7 8 mph - - -
11:42 5
mph
1012mb 38f 46f
11:36 3 5 mph 1012.1mb 38f 46f
11:30 5 6 mph 1012.1mb 38f 45f
11:24 6
mph
1012mb 38f 45f
11:18 5 6 mph 1012mb 38f 44f
11:12 6
mph
1011.9mb 38f 45f
11:06 6
mph
1012mb 38f 43f
10:54 5
mph
1012.2mb 38f 43f
10:48 3 5 mph 1012.2mb 38f 43f
10:42 5
mph
1012.2mb 38f 43f
10:36 5
mph
1012.3mb 38f 43f
10:30 3
mph
1012.4mb 38f 43f
10:24 2
mph
1012.4mb 38f 43f
10:18 2 3 mph 1012.4mb 38f 42f
10:12 3
mph
1012.5mb 38f 42f
10:06 2 3 mph 1012.4mb 38f 42f
10:00 3 6 mph 1012.5mb 38f 41f
9:54 6
mph
1012.3mb 38f 41f
9:48 3
mph
- - -
9:42 3
mph
1012.3mb 38f 41f
9:36 3 5 mph 1012.3mb 38f 41f
9:30 3 5 mph 1012.3mb 38f 41f
9:24 3
mph
1012.3mb 38f 40f
9:18 3
mph
1012.4mb 38f 40f
9:12 3
mph
1012.4mb 38f 40f
9:06 2 3 mph 1012.4mb 38f 40f
9:00 3 6 mph 1012.4mb 38f 40f
8:54 5 6 mph 1012.4mb 38f 40f
8:48 2 3 mph - - -
8:42 1 2 mph 1012.4mb 38f 46f
8:36  -  2 mph 1012.4mb 38f 47f
8:30  -  1 mph 1012.4mb 38f 47f
8:24  -  1 mph 1012.5mb 38f 46f
8:18  -  3 mph - - -
8:12 2 3 mph 1012.4mb 38f 42f
8:06 3 5 mph 1012.4mb 38f 41f
8:00 3
mph
1012.4mb 38f 41f
7:54 1 2 mph 1012.4mb 38f 41f
7:48 2
mph
1012.5mb 38f 41f
7:42 1
mph
1012.6mb 38f 40f
7:36  -  2 mph 1012.6mb 38f 40f
7:30 1 2 mph 1012.5mb 38f 39f
7:24  -  2 mph 1012.4mb 38f 39f
7:18 1 2 mph 1012.4mb 38f 39f
7:12 1 3 mph 1012.3mb 38f 40f
7:06 2 5 mph 1012.3mb 38f 40f
7:00 5 6 mph 1012.4mb 38f 40f
6:54 5 7 mph 1012.4mb 38f 40f
6:48 5 7 mph 1012.3mb 38f 40f
6:42 6 7 mph 1012.3mb 38f 40f
6:36 3 5 mph 1012.2mb 38f 39f
6:30 3 5 mph 1012.3mb 38f 39f
6:24 5 6 mph 1012.2mb 38f 39f
6:18 5 7 mph 1012.1mb 38f 40f
6:12 5 6 mph 1012.2mb 38f 40f
6:06 5 6 mph 1012.2mb 38f 40f
6:00 6 8 mph 1012.1mb 38f 40f
5:54 7 9 mph 1012.1mb 38f 41f
5:48 7 10 mph 1012mb 38f 41f
5:36 7 9 mph 1011.9mb 38f 41f
5:30 8 9 mph 1011.8mb 38f 41f
5:24 7 9 mph 1011.8mb 38f 41f
5:18 7 10 mph 1011.7mb 38f 41f
5:12 8 9 mph 1011.6mb 38f 42f
5:06 8 10 mph 1011.7mb 38f 42f
5:00 8 10 mph 1011.7mb 38f 41f
4:54 8 10 mph 1011.8mb 38f 41f
4:48 7 9 mph - - -
4:42 8 9 mph 1011.7mb 38f 42f
4:36 7 10 mph 1011.8mb 38f 42f
4:30 7 8 mph 1011.7mb 38f 42f
4:24 7 9 mph 1011.9mb 38f 42f
4:18 6 9 mph 1011.9mb 38f 42f
4:12 6 8 mph 1011.9mb 38f 42f
4:06 6 9 mph 1011.9mb 38f 42f
4:00 7 9 mph 1011.9mb 38f 42f
3:54 7 9 mph 1011.9mb 38f 43f
3:48 6 8 mph - - -
3:42 7 8 mph 1012mb 38f 43f
3:36 6 9 mph 1012mb 38f 43f
3:30 7 9 mph 1012.1mb 38f 43f
3:24 7 9 mph 1012.1mb 38f 43f
3:18 6 8 mph 1012.1mb 38f 43f
3:12 6 10 mph 1012.2mb 38f 43f
3:06 8 10 mph 1012.2mb 38f 43f
3:00 5 9 mph 1012.2mb 38f 43f
2:54 7 13 mph 1012.4mb 38f 43f
2:48 6 10 mph - - -
2:42 8 10 mph 1012.6mb 38f 43f
2:36 8 10 mph 1012.7mb 38f 43f
2:30 8 10 mph 1012.6mb 38f 43f
2:24 6 8 mph 1012.7mb 38f 43f
2:18 7 10 mph 1012.7mb 38f 43f
2:12 7 10 mph 1012.7mb 38f 43f
2:06 7 10 mph 1012.7mb 38f 43f
2:00 8 10 mph 1012.6mb 38f 43f
1:54 8 10 mph 1012.6mb 38f 43f
1:48 8 11 mph 1012.6mb 38f 43f
1:42 7 11 mph 1012.6mb 38f 43f
1:36 8 10 mph 1012.7mb 38f 42f
1:30 7 10 mph 1012.8mb 38f 42f
1:24 8 10 mph 1012.9mb 38f 42f
1:18 7 9 mph 1012.9mb 38f 42f
1:12 7 8 mph 1012.9mb 38f 42f
1:06 7 10 mph 1012.9mb 38f 42f
1:00 8 11 mph 1012.9mb 38f 42f
12:54 7 10 mph 1013mb 38f 42f
12:48 9 13 mph 1013mb 38f 42f
12:42 9 13 mph 1013.1mb 38f 42f
12:36 8 11 mph 1013.3mb 38f 42f
12:30 8 11 mph 1013.3mb 38f 42f
12:24 7 9 mph 1013.3mb 38f 42f
12:18 6 8 mph 1013.4mb 38f 42f
12:12 6 8 mph 1013.4mb 38f 42f
12:06 6 9 mph 1013.5mb 38f 41f
12:00 8 10 mph 1013.6mb 38f 41f
Mo 03/20 11:54 6 8 mph 1013.6mb 38f 40f
11:48 6 8 mph - - -
11:42 7 9 mph 1013.7mb 38f 37f
11:36 7 8 mph 1013.7mb 38f 41f
11:30 6 7 mph 1013.7mb 38f 37f
11:24 6
mph
1013.7mb 38f 37f
11:18 5 6 mph 1013.8mb 38f 37f
11:12 5 6 mph 1013.8mb 38f 37f
11:06 5 7 mph 1013.9mb 38f 37f
11:00 7
mph
1014mb 38f 37f
10:54 6
mph
1013.9mb 38f 37f
10:48 5 6 mph 1013.9mb 38f 37f
10:42 6
mph
1013.8mb 38f 37f
10:36 3 5 mph 1013.8mb 38f 37f
10:30 3 5 mph 1013.8mb 38f 37f
10:24 5
mph
1013.8mb 38f 38f
10:18 5 6 mph - - -
10:12 6
mph
1013.8mb 38f 38f
10:06 6 7 mph 1013.8mb 38f 39f
10:00 7
mph
1013.8mb 38f 38f
9:54 6 7 mph 1013.8mb 38f 39f
9:48 1 3 mph 1013.8mb - -
9:42 3 5 mph 1013.8mb 38f 41f
9:36 5 7 mph 1013.8mb 38f 40f
9:30 6 7 mph 1013.8mb 38f 41f
9:24 6
mph
1013.7mb 38f 40f
9:18 3 5 mph 1013.7mb - -
9:12 3
mph
1013.9mb 38f 43f
9:06 3 8 mph 1013.9mb 38f 43f
9:00 7
mph
1014mb 38f 41f
8:54 3 5 mph 1013.9mb 38f 40f
8:48 5 6 mph 1013.8mb - -
8:42 3 5 mph 1013.8mb 38f 42f
8:36 2
mph
1013.7mb 38f 46f
8:30 2 3 mph 1013.7mb 38f 46f
8:24 2
mph
1013.7mb 38f 46f
8:18 2
mph
- - -
8:12 2 3 mph 1013.7mb 38f 46f
8:06 3
mph
1013.7mb 38f 46f
8:00 3
mph
1013.7mb 38f 45f
7:54 2 3 mph 1013.7mb 38f 45f
7:48 3 5 mph 1013.7mb - -
7:42 5 6 mph 1013.7mb 38f 44f
7:36 6
mph
1013.6mb 38f 46f
7:30 2 5 mph 1013.6mb 38f 46f
7:24 2 3 mph 1013.5mb 38f 47f
7:18 2 5 mph - - -
7:12 1 6 mph 1013.5mb 38f 47f
7:06 3 5 mph 1013.4mb 38f 50f
7:00 3 6 mph 1013.4mb 38f 50f
6:54 3 5 mph 1013.5mb 38f 50f
6:48 5 6 mph 1013.7mb - -
6:42 3 5 mph 1013.6mb 38f 49f
6:36 5 6 mph 1013.7mb 38f 49f
6:30 6 8 mph 1013.6mb 38f 47f
6:24 8 10 mph 1013.5mb 38f 51f
6:18 8 10 mph - - -
6:12 7 11 mph 1013.5mb 38f 52f
6:06 8 11 mph 1013.6mb 38f 52f
6:00 10 13 mph 1013.6mb 38f 52f
5:54 9 14 mph 1013.6mb 38f 52f
5:48 10 14 mph 1013.6mb - -
5:42 11 14 mph 1013.7mb 38f 52f
5:36 11 14 mph 1013.8mb 38f 52f
5:30 11 14 mph 1013.8mb 38f 52f
5:24 11 14 mph 1013.9mb 38f 52f
5:18 14 18 mph 1013.9mb 38f 51f
5:12 14 18 mph 1013.9mb 38f 52f
5:06 14 16 mph 1014mb 38f 52f
5:00 14 18 mph 1014mb 38f 51f
4:54 14 16 mph 1014mb 38f 51f
4:48 9 17 mph 1014.1mb 38f 52f
4:42 13 16 mph 1014.2mb 38f 51f
4:36 11 18 mph 1014.3mb 38f 51f
4:30 14 17 mph 1014.3mb 38f 51f
4:24 15 18 mph 1014.3mb 38f 51f
4:18 16 18 mph 1014.3mb 38f 50f
4:12 15 18 mph 1014.3mb 38f 51f
4:06 14 20 mph 1014.2mb 38f 50f
4:00 15 21 mph 1014.3mb 38f 50f
3:54 16 21 mph 1014.3mb 38f 50f
3:48 13 20 mph - - -
3:42 11 18 mph 1014.1mb 38f 50f
3:36 14 18 mph 1014.1mb 38f 50f
3:30 13 17 mph 1014.1mb 38f 49f
3:24 14 22 mph 1014.1mb 38f 49f
3:18 15 20 mph 1014.1mb 38f 49f
3:12 11 18 mph 1014mb 38f 49f
3:06 14 18 mph 1014.1mb 37f 49f
3:00 15 20 mph 1014.1mb 38f 49f
2:54 13 20 mph 1014.1mb 38f 49f
2:48 15 21 mph 1014.1mb 38f 49f
2:42 16 21 mph 1014.1mb 38f 49f
2:36 15 21 mph 1014.3mb 37f 49f
2:30 15 17 mph 1014.4mb 37f 48f
2:24 15 20 mph 1014.5mb 37f 48f
2:18 15 28 mph 1014.6mb 37f 48f
2:12 16 20 mph 1014.7mb 37f 47f
2:06 18 24 mph 1014.7mb 37f 48f